Time;durP1;ratioP1;P1;durP2;ratioP2;P2;SDS_P1;SDS_P2;PMS_P1;PMS_P2;Temp;Humidity;BMP_temperature;BMP_pressure;BME280_temperature;BME280_humidity;BME280_pressure;Samples;Min_cycle;Max_cycle;Signal;HPM_P1;HPM_P2
2022/12/03 00:00:48;;;;;;;73.90;38.80;;;;;;;-1.94;100.00;97334.64;105817;1301;23728;-87
2022/12/03 00:03:24;;;;;;;67.60;36.00;;;;;;;-1.90;100.00;97338.39;105780;1296;22526;-88
2022/12/03 00:05:52;;;;;;;71.90;36.80;;;;;;;-1.89;100.00;97337.84;104765;1301;1108332;-87
2022/12/03 00:08:21;;;;;;;67.80;35.50;;;;;;;-1.87;100.00;97341.94;105781;1285;22522;-87
2022/12/03 00:10:52;;;;;;;61.90;32.20;;;;;;;-1.85;100.00;97348.09;105753;1295;22516;-87
2022/12/03 00:13:20;;;;;;;68.50;35.50;;;;;;;-1.84;100.00;97348.66;105692;1293;22464;-87
2022/12/03 00:15:49;;;;;;;70.60;34.60;;;;;;;-1.83;100.00;97356.77;105743;1288;26186;-87
2022/12/03 00:18:18;;;;;;;73.10;35.00;;;;;;;-1.82;100.00;97356.65;105779;1301;22488;-88
2022/12/03 00:20:46;;;;;;;77.10;39.20;;;;;;;-1.81;100.00;97348.48;105783;1295;23249;-88
2022/12/03 00:23:15;;;;;;;75.10;37.90;;;;;;;-1.80;100.00;97348.08;105780;1279;22515;-88
2022/12/03 00:25:43;;;;;;;74.70;35.80;;;;;;;-1.81;100.00;97355.98;105618;1279;22531;-87
2022/12/03 00:28:12;;;;;;;69.50;35.00;;;;;;;-1.80;100.00;97359.35;105550;1291;22502;-89
2022/12/03 00:30:41;;;;;;;74.90;36.10;;;;;;;-1.78;100.00;97363.33;105544;1302;23082;-87
2022/12/03 00:33:09;;;;;;;72.20;35.00;;;;;;;-1.80;100.00;97363.99;105562;1294;22474;-87
2022/12/03 00:35:38;;;;;;;74.50;35.80;;;;;;;-1.84;100.00;97364.30;105660;1301;26179;-87
2022/12/03 00:38:07;;;;;;;74.50;35.50;;;;;;;-1.87;100.00;97367.61;105820;1295;22499;-87
2022/12/03 00:40:35;;;;;;;72.40;35.30;;;;;;;-1.88;100.00;97360.24;105789;1292;22630;-87
2022/12/03 00:43:06;;;;;;;73.20;35.40;;;;;;;-1.91;100.00;97356.77;105799;1279;22456;-87
2022/12/03 00:45:35;;;;;;;72.20;35.20;;;;;;;-1.94;100.00;97359.86;105691;1301;69053;-88
2022/12/03 00:48:04;;;;;;;73.40;34.20;;;;;;;-1.98;100.00;97353.80;105776;1300;25444;-88
2022/12/03 00:50:33;;;;;;;73.00;34.80;;;;;;;-2.01;100.00;97359.07;105753;1301;22636;-88
2022/12/03 00:53:01;;;;;;;81.30;38.80;;;;;;;-2.05;100.00;97359.48;105772;1300;22490;-87
2022/12/03 00:55:31;;;;;;;75.80;35.60;;;;;;;-2.09;100.00;97354.44;105768;1285;33037;-86
2022/12/03 00:57:59;;;;;;;72.10;35.10;;;;;;;-2.12;100.00;97353.57;105768;1286;22501;-87
2022/12/03 01:00:28;;;;;;;71.90;34.40;;;;;;;-2.16;100.00;97354.92;105767;1299;22465;-87
2022/12/03 01:02:57;;;;;;;74.50;35.40;;;;;;;-2.19;100.00;97354.64;105805;1295;23411;-88
2022/12/03 01:05:25;;;;;;;87.50;39.10;;;;;;;-2.21;100.00;97355.91;105669;1296;22544;-89
2022/12/03 01:07:54;;;;;;;80.10;36.60;;;;;;;-2.21;100.00;97353.58;105785;1286;22540;-87
2022/12/03 01:10:23;;;;;;;78.50;37.30;;;;;;;-2.18;100.00;97360.89;105760;1297;25473;-88
2022/12/03 01:12:51;;;;;;;78.30;38.20;;;;;;;-2.14;100.00;97353.14;105785;1294;22662;-88
2022/12/03 01:15:20;;;;;;;79.40;38.90;;;;;;;-2.08;100.00;97351.88;105640;1293;102945;-88
2022/12/03 01:17:49;;;;;;;79.60;36.20;;;;;;;-2.02;100.00;97351.52;105783;1295;22466;-88
2022/12/03 01:20:17;;;;;;;87.30;39.30;;;;;;;-1.97;100.00;97347.86;105703;1294;24320;-88
2022/12/03 01:22:46;;;;;;;82.10;37.50;;;;;;;-1.95;100.00;97348.63;105579;1301;22456;-88
2022/12/03 01:25:15;;;;;;;78.90;37.00;;;;;;;-1.95;100.00;97345.73;105671;1301;78764;-87
2022/12/03 01:27:43;;;;;;;80.90;35.90;;;;;;;-1.92;100.00;97343.45;105787;1286;25228;-87
2022/12/03 01:30:13;;;;;;;84.20;38.30;;;;;;;-1.89;100.00;97336.80;105822;1301;26640;-87
2022/12/03 01:32:41;;;;;;;;;;;;;;;-1.87;100.00;97335.02;105796;1285;22442;-87
2022/12/03 01:35:10;;;;;;;74.00;33.20;;;;;;;-1.89;100.00;97335.16;105674;1301;99613;-86
2022/12/03 01:37:39;;;;;;;73.10;33.60;;;;;;;-1.91;100.00;97337.42;105794;1279;22509;-87
2022/12/03 01:40:11;;;;;;;78.00;35.80;;;;;;;-1.92;100.00;97336.36;105804;1294;22521;-87
2022/12/03 01:42:41;;;;;;;75.80;34.40;;;;;;;-1.94;100.00;97337.40;105792;1286;22513;-87
2022/12/03 01:45:20;;;;;;;72.80;35.20;;;;;;;-1.94;100.00;97333.23;105612;1301;25619;-87
2022/12/03 01:47:49;;;;;;;74.30;35.10;;;;;;;-1.95;100.00;97333.42;105566;1287;22854;-87
2022/12/03 01:50:24;;;;;;;76.40;36.20;;;;;;;-1.94;100.00;97336.79;105553;1300;22501;-87
2022/12/03 01:52:55;;;;;;;71.00;34.40;;;;;;;-1.94;100.00;97332.23;105600;1294;22469;-87
2022/12/03 01:55:25;;;;;;;76.20;35.90;;;;;;;-1.95;100.00;97328.08;105670;1281;27977;-87
2022/12/03 01:57:56;;;;;;;74.70;35.70;;;;;;;-1.97;100.00;97327.56;105791;1301;22546;-87
2022/12/03 02:00:26;;;;;;;71.50;36.40;;;;;;;-1.97;100.00;97328.46;105764;1301;22522;-87
2022/12/03 02:02:57;;;;;;;77.40;34.90;;;;;;;-1.99;100.00;97325.00;105722;1301;22529;-87
2022/12/03 02:05:28;;;;;;;83.20;36.10;;;;;;;-2.03;100.00;97327.91;105710;1279;72281;-87
2022/12/03 02:07:57;;;;;;;77.00;34.50;;;;;;;-2.01;100.00;97331.21;105750;1301;22498;-87
2022/12/03 02:10:31;;;;;;;77.20;34.70;;;;;;;-2.02;100.00;97327.36;105780;1295;22516;-87
2022/12/03 02:13:02;;;;;;;73.40;35.60;;;;;;;-2.05;100.00;97331.69;105768;1292;22663;-87
2022/12/03 02:15:31;;;;;;;75.00;35.60;;;;;;;-2.04;100.00;97335.90;105658;1298;74526;-87
2022/12/03 02:18:00;;;;;;;74.90;36.80;;;;;;;-2.04;100.00;97337.10;105806;1288;22511;-88
2022/12/03 02:20:32;;;;;;;75.90;35.60;;;;;;;-2.06;100.00;97336.84;105694;1294;22463;-88
2022/12/03 02:23:06;;;;;;;70.70;33.10;;;;;;;-2.09;100.00;97340.76;105717;1285;22486;-88
2022/12/03 02:25:37;;;;;;;65.10;31.40;;;;;;;-2.10;100.00;97342.27;105701;1301;62288;-88
2022/12/03 02:28:08;;;;;;;67.10;34.20;;;;;;;-2.12;100.00;97338.70;105821;1301;22480;-87
2022/12/03 02:30:37;;;;;;;83.10;35.70;;;;;;;-2.12;100.00;97337.70;105726;1301;22495;-88
2022/12/03 02:33:06;;;;;;;71.90;34.10;;;;;;;-2.11;100.00;97342.89;105803;1295;22495;-87
2022/12/03 02:35:39;;;;;;;77.20;36.50;;;;;;;-2.08;100.00;97340.21;105671;1301;58426;-87
2022/12/03 02:38:11;;;;;;;79.40;36.70;;;;;;;-2.06;100.00;97334.95;105746;1290;25441;-87
2022/12/03 02:40:41;;;;;;;80.40;36.10;;;;;;;-2.03;100.00;97336.50;105767;1301;22472;-87
2022/12/03 02:43:11;;;;;;;75.50;34.60;;;;;;;-2.01;100.00;97339.29;105792;1292;22464;-87
2022/12/03 02:45:43;;;;;;;77.10;35.20;;;;;;;-2.00;100.00;97341.06;105729;1292;78907;-87
2022/12/03 02:48:14;;;;;;;74.00;35.40;;;;;;;-1.99;100.00;97339.04;105768;1292;22500;-87
2022/12/03 02:50:52;;;;;;;76.30;35.80;;;;;;;-1.98;100.00;97340.32;105793;1293;22468;-87
2022/12/03 02:53:25;;;;;;;83.40;37.70;;;;;;;-1.95;100.00;97339.10;105779;1300;22458;-87
2022/12/03 02:55:55;;;;;;;77.70;36.10;;;;;;;-1.93;100.00;97336.41;105655;1285;22510;-87
2022/12/03 02:58:27;;;;;;;77.60;36.20;;;;;;;-1.89;100.00;97337.85;105642;1303;22505;-87
2022/12/03 03:00:56;;;;;;;68.40;33.90;;;;;;;-1.86;100.00;97336.63;105511;1302;22914;-87
2022/12/03 03:03:30;;;;;;;76.60;33.10;;;;;;;-1.83;100.00;97336.15;105631;1297;24306;-87
2022/12/03 03:06:01;;;;;;;78.10;33.70;;;;;;;-1.81;100.00;97338.59;105674;1300;23822;-87
2022/12/03 03:08:30;;;;;;;77.70;37.00;;;;;;;-1.79;100.00;97339.09;105846;1292;24330;-88
2022/12/03 03:11:00;;;;;;;78.30;36.10;;;;;;;-1.77;100.00;97331.11;105783;1285;22525;-88
2022/12/03 03:13:33;;;;;;;79.00;35.70;;;;;;;-1.73;100.00;97330.50;105815;1301;22501;-87
2022/12/03 03:16:04;;;;;;;81.60;36.30;;;;;;;-1.71;100.00;97336.24;105738;1292;24353;-87
2022/12/03 03:18:33;;;;;;;108.90;52.70;;;;;;;-1.69;100.00;97340.52;105787;1293;22489;-88
2022/12/03 03:21:02;;;;;;;76.20;36.50;;;;;;;-1.67;100.00;97337.75;105730;1301;22453;-88
2022/12/03 03:23:31;;;;;;;80.20;38.10;;;;;;;-1.73;100.00;97342.46;105765;1300;22422;-88
2022/12/03 03:26:05;;;;;;;84.10;37.30;;;;;;;-1.82;100.00;97344.16;105719;1301;22473;-88
2022/12/03 03:28:37;;;;;;;79.00;35.90;;;;;;;-1.87;100.00;97340.19;105773;1292;22575;-88
2022/12/03 03:31:08;;;;;;;82.50;38.80;;;;;;;-1.86;100.00;97339.04;105745;1301;22482;-88
2022/12/03 03:33:38;;;;;;;71.50;32.50;;;;;;;-1.86;100.00;97339.91;105744;1284;25236;-88
2022/12/03 03:36:07;;;;;;;;;;;;;;;-1.90;100.00;97334.15;105518;1287;28134;-88
2022/12/03 03:38:37;;;;;;;79.20;34.00;;;;;;;-1.96;100.00;97338.33;105746;1282;25368;-88
2022/12/03 03:41:07;;;;;;;69.70;35.30;;;;;;;-1.98;100.00;97338.40;105729;1301;22444;-87
2022/12/03 03:43:38;;;;;;;78.50;35.60;;;;;;;-1.95;100.00;97338.63;105797;1301;22526;-88
2022/12/03 03:46:08;;;;;;;86.40;37.70;;;;;;;-1.92;100.00;97333.94;105630;1300;74932;-88
2022/12/03 03:48:38;;;;;;;74.00;34.20;;;;;;;-1.90;100.00;97333.12;105789;1292;22513;-88
2022/12/03 03:51:10;;;;;;;87.10;39.40;;;;;;;-1.92;100.00;97323.48;105737;1295;22554;-87
2022/12/03 03:53:42;;;;;;;85.50;38.00;;;;;;;-1.95;100.00;97322.84;105740;1288;24250;-87
2022/12/03 03:56:12;;;;;;;85.20;38.50;;;;;;;-1.92;100.00;97326.34;105764;1301;25756;-87
2022/12/03 03:58:40;;;;;;;87.30;38.00;;;;;;;-1.89;100.00;97321.98;105762;1301;22462;-87
2022/12/03 04:01:11;;;;;;;78.30;36.50;;;;;;;-1.87;100.00;97323.71;105754;1286;22479;-88
2022/12/03 04:03:38;;;;;;;;;;;;;;;-1.87;100.00;97328.91;105789;1292;25216;-88
2022/12/03 04:06:08;;;;;;;73.40;33.90;;;;;;;-1.87;100.00;97326.19;105644;1286;104537;-88
2022/12/03 04:08:36;;;;;;;76.20;34.30;;;;;;;-1.88;100.00;97320.59;105776;1301;26581;-88
2022/12/03 04:13:52;;;;;;;80.60;37.80;;;;;;;-1.90;100.00;97318.40;105807;1301;22459;-88
2022/12/03 04:16:21;;;;;;;74.70;33.70;;;;;;;-1.91;100.00;97320.59;105631;1295;91080;-88
2022/12/03 04:18:50;;;;;;;79.80;36.50;;;;;;;-1.92;100.00;97324.05;105719;1293;22608;-88
2022/12/03 04:24:11;;;;;;;74.40;34.00;;;;;;;-2.00;100.00;97320.88;105784;1292;22494;-88
2022/12/03 04:29:26;;;;;;;62.30;30.40;;;;;;;-2.11;100.00;97328.87;105732;1301;22465;-88
2022/12/03 04:37:34;;;;;;;82.30;33.60;;;;;;;-2.28;100.00;97326.90;105727;1300;22500;-88
2022/12/03 04:40:59;;;;;;;83.90;36.00;;;;;;;-2.32;100.00;97330.98;105775;1301;24295;-88
2022/12/03 04:42:52;;;;;;;54.40;23.80;;;;;;;-2.35;100.00;97327.90;105732;1296;22473;-87
2022/12/03 04:45:20;;;;;;;80.10;36.30;;;;;;;-2.34;100.00;97328.64;105709;1301;40768;-87
2022/12/03 04:47:51;;;;;;;78.30;35.80;;;;;;;-2.31;100.00;97328.86;105801;1295;22488;-87
2022/12/03 04:50:20;;;;;;;87.60;38.90;;;;;;;-2.33;100.00;97337.71;105786;1296;22628;-87
2022/12/03 04:52:49;;;;;;;90.50;34.80;;;;;;;-2.40;100.00;97338.45;105793;1285;22497;-86
2022/12/03 04:55:17;;;;;;;84.00;36.90;;;;;;;-2.47;100.00;97335.84;105713;1301;25741;-87
2022/12/03 04:57:46;;;;;;;83.80;37.50;;;;;;;-2.53;100.00;97342.76;105812;1295;22469;-87
2022/12/03 05:00:16;;;;;;;88.80;36.80;;;;;;;-2.55;100.00;97340.94;105787;1301;22501;-87
2022/12/03 05:02:46;;;;;;;86.50;38.60;;;;;;;-2.58;100.00;97339.42;105788;1279;22423;-87
2022/12/03 05:05:15;;;;;;;98.40;40.80;;;;;;;-2.57;100.00;97339.27;105759;1301;23261;-88
2022/12/03 05:07:44;;;;;;;94.20;38.10;;;;;;;-2.57;100.00;97338.44;105727;1288;22531;-87
2022/12/03 05:10:16;;;;;;;120.40;37.60;;;;;;;-2.59;100.00;97340.36;105768;1293;24251;-87
2022/12/03 05:12:45;;;;;;;94.80;36.90;;;;;;;-2.70;100.00;97341.09;105804;1301;22546;-87
2022/12/03 05:15:13;;;;;;;80.90;37.10;;;;;;;-2.80;100.00;97347.32;105642;1301;82777;-87
2022/12/03 05:17:43;;;;;;;80.50;36.30;;;;;;;-2.84;100.00;97345.73;105725;1301;22587;-87
2022/12/03 05:23:01;;;;;;;74.30;33.90;;;;;;;-2.87;100.00;97347.63;105741;1293;22489;-89
2022/12/03 05:25:29;;;;;;;96.90;34.90;;;;;;;-2.89;100.00;97346.81;105650;1301;85526;-88
2022/12/03 05:27:58;;;;;;;76.80;34.60;;;;;;;-2.88;100.00;97347.26;105826;1295;23145;-88
2022/12/03 05:30:27;;;;;;;86.70;40.20;;;;;;;-2.89;100.00;97342.66;105823;1276;22466;-87
2022/12/03 05:32:56;;;;;;;75.40;36.70;;;;;;;-2.95;100.00;97336.46;105789;1289;25314;-87
2022/12/03 05:35:25;;;;;;;78.20;35.50;;;;;;;-2.96;100.00;97335.64;105645;1294;67256;-87
2022/12/03 05:37:53;;;;;;;87.00;37.20;;;;;;;-2.93;100.00;97339.92;105770;1294;22454;-86
2022/12/03 05:40:25;;;;;;;83.50;38.50;;;;;;;-2.91;100.00;97338.20;105761;1301;22787;-86
2022/12/03 05:42:53;;;;;;;83.80;37.90;;;;;;;-2.89;100.00;97340.62;105799;1301;25259;-86
2022/12/03 05:45:26;;;;;;;96.30;39.40;;;;;;;-2.87;100.00;97341.73;105745;1301;24506;-86
2022/12/03 05:47:57;;;;;;;108.70;39.30;;;;;;;-2.86;100.00;97342.70;105755;1279;22466;-86
2022/12/03 05:50:28;;;;;;;91.50;40.40;;;;;;;-2.88;100.00;97345.27;105799;1301;24602;-86
2022/12/03 05:52:58;;;;;;;153.40;45.50;;;;;;;-2.89;100.00;97348.33;105796;1300;25345;-86
2022/12/03 05:55:27;;;;;;;120.60;35.70;;;;;;;-2.96;100.00;97343.17;105800;1301;24343;-85
2022/12/03 05:57:58;;;;;;;102.30;35.10;;;;;;;-3.08;100.00;97337.39;105772;1280;25678;-85
2022/12/03 06:00:29;;;;;;;112.60;41.40;;;;;;;-3.13;100.00;97337.71;105795;1301;22471;-85
2022/12/03 06:02:59;;;;;;;105.70;38.20;;;;;;;-3.14;100.00;97337.41;105775;1292;24287;-86
2022/12/03 06:05:28;;;;;;;75.30;26.30;;;;;;;-3.14;100.00;97338.73;105654;1292;41092;-87
2022/12/03 06:07:57;;;;;;;82.50;34.80;;;;;;;-3.19;100.00;97338.81;105768;1297;22466;-86
2022/12/03 06:10:26;;;;;;;89.80;37.40;;;;;;;-3.32;100.00;97343.02;105756;1301;22505;-86
2022/12/03 06:12:56;;;;;;;86.00;36.70;;;;;;;-3.36;100.00;97347.27;105720;1303;24246;-85
2022/12/03 06:15:25;;;;;;;55.10;22.60;;;;;;;-3.34;100.00;97347.58;105706;1301;86249;-86
2022/12/03 06:17:54;;;;;;;91.70;34.10;;;;;;;-3.35;100.00;97346.45;105784;1286;22461;-85
2022/12/03 06:20:23;;;;;;;74.80;33.00;;;;;;;-3.38;100.00;97345.14;105857;1275;22505;-85
2022/12/03 06:22:52;;;;;;;66.10;33.70;;;;;;;-3.54;100.00;97345.88;105777;1301;22455;-85
2022/12/03 06:25:20;;;;;;;61.00;32.70;;;;;;;-3.75;100.00;97350.66;105702;1295;22474;-85
2022/12/03 06:27:49;;;;;;;56.30;30.30;;;;;;;-3.93;100.00;97348.11;105705;1279;22668;-85
2022/12/03 06:30:18;;;;;;;51.90;28.90;;;;;;;-4.03;100.00;97349.42;105759;1279;23337;-86
2022/12/03 06:32:47;;;;;;;58.50;32.20;;;;;;;-4.06;100.00;97348.34;105763;1294;22939;-85
2022/12/03 06:35:16;;;;;;;72.60;36.80;;;;;;;-4.03;100.00;97347.84;105712;1286;24997;-85
2022/12/03 06:37:47;;;;;;;62.00;34.70;;;;;;;-3.97;100.00;97353.21;105813;1282;24877;-85
2022/12/03 06:40:16;;;;;;;57.40;31.90;;;;;;;-3.86;100.00;97350.32;105708;1285;22494;-85
2022/12/03 06:42:48;;;;;;;53.20;30.40;;;;;;;-3.78;100.00;97349.02;105745;1295;22456;-85
2022/12/03 06:45:17;;;;;;;55.40;30.40;;;;;;;-3.70;100.00;97352.31;105715;1301;22500;-85
2022/12/03 06:47:46;;;;;;;56.40;30.60;;;;;;;-3.62;100.00;97349.36;105660;1287;22688;-85
2022/12/03 06:50:15;;;;;;;50.60;29.40;;;;;;;-3.54;100.00;97351.21;105653;1295;22523;-85
2022/12/03 06:52:44;;;;;;;49.40;26.00;;;;;;;-3.53;100.00;97358.17;105514;1275;22532;-85
2022/12/03 06:55:12;;;;;;;68.40;33.50;;;;;;;-3.53;100.00;97357.01;105554;1301;26668;-85
2022/12/03 06:57:41;;;;;;;85.50;41.60;;;;;;;-3.59;100.00;97354.04;105741;1282;22476;-85
2022/12/03 07:00:13;;;;;;;72.60;38.10;;;;;;;-3.61;100.00;97359.76;105782;1293;22532;-85
2022/12/03 07:02:43;;;;;;;78.10;41.10;;;;;;;-3.60;100.00;97359.81;105769;1300;24563;-86
2022/12/03 07:05:12;;;;;;;67.30;37.60;;;;;;;-3.59;100.00;97361.14;105666;1301;23601;-85
2022/12/03 07:07:41;;;;;;;63.70;33.20;;;;;;;-3.52;100.00;97364.73;105602;1302;22506;-85
2022/12/03 07:10:13;;;;;;;63.20;33.90;;;;;;;-3.43;100.00;97365.70;105566;1298;22567;-86
2022/12/03 07:12:42;;;;;;;62.90;34.30;;;;;;;-3.28;100.00;97360.04;105652;1301;22460;-86
2022/12/03 07:15:11;;;;;;;59.90;33.40;;;;;;;-3.08;100.00;97362.07;105550;1301;25213;-86
2022/12/03 07:17:40;;;;;;;54.70;32.70;;;;;;;-2.84;100.00;97356.79;105815;1301;22517;-85
2022/12/03 07:20:12;;;;;;;59.20;32.80;;;;;;;-2.69;100.00;97357.07;105758;1300;22467;-86
2022/12/03 07:22:41;;;;;;;51.60;31.80;;;;;;;-2.52;100.00;97358.28;105796;1301;23071;-86
2022/12/03 07:25:10;;;;;;;57.90;33.00;;;;;;;-2.34;100.00;97357.27;105717;1282;25436;-86
2022/12/03 07:27:39;;;;;;;51.30;31.40;;;;;;;-2.13;100.00;97355.13;105791;1301;22464;-86
2022/12/03 07:30:13;;;;;;;54.70;31.80;;;;;;;-1.80;100.00;97354.98;105767;1301;22615;-87
2022/12/03 07:32:42;;;;;;;58.50;35.30;;;;;;;-1.49;100.00;97359.14;105748;1292;22452;-86
2022/12/03 07:35:12;;;;;;;61.70;37.90;;;;;;;-1.36;100.00;97356.30;105587;1301;98440;-85
2022/12/03 07:37:41;;;;;;;66.60;40.00;;;;;;;-1.34;100.00;97360.27;105506;1302;22465;-86
2022/12/03 07:40:14;;;;;;;58.40;35.70;;;;;;;-1.26;100.00;97364.52;105504;1302;22524;-85
2022/12/03 07:42:43;;;;;;;56.20;35.10;;;;;;;-1.15;100.00;97366.98;105523;1302;22511;-85
2022/12/03 07:45:12;;;;;;;56.40;35.30;;;;;;;-1.03;100.00;97367.05;105555;1284;24409;-86
2022/12/03 07:47:42;;;;;;;58.90;36.30;;;;;;;-0.92;100.00;97371.40;105775;1301;25318;-86
2022/12/03 07:50:12;;;;;;;55.20;35.00;;;;;;;-0.74;100.00;97366.62;105708;1293;22504;-86
2022/12/03 07:52:43;;;;;;;56.60;34.80;;;;;;;-0.69;100.00;97363.98;105726;1301;22931;-85
2022/12/03 07:55:13;;;;;;;51.60;32.60;;;;;;;-0.57;100.00;97365.96;104408;1276;1656824;-86
2022/12/03 07:57:42;;;;;;;48.00;32.70;;;;;;;-0.44;100.00;97361.37;105774;1301;22462;-86
2022/12/03 08:00:18;;;;;;;52.20;33.80;;;;;;;-0.31;100.00;97359.70;105774;1292;22526;-86
2022/12/03 08:02:47;;;;;;;51.70;34.90;;;;;;;-0.08;100.00;97358.11;105786;1301;22507;-86
2022/12/03 08:05:17;;;;;;;52.50;34.00;;;;;;;0.17;100.00;97350.77;105710;1301;22425;-87
2022/12/03 08:07:46;;;;;;;54.40;35.90;;;;;;;0.30;100.00;97351.15;105759;1300;22459;-86
2022/12/03 08:10:15;;;;;;;52.00;34.60;;;;;;;0.43;100.00;97347.63;105740;1286;22527;-86
2022/12/03 08:12:44;;;;;;;57.20;35.40;;;;;;;0.55;100.00;97344.77;105813;1301;22458;-86
2022/12/03 08:15:16;;;;;;;48.20;32.30;;;;;;;0.50;100.00;97343.92;105741;1294;27441;-86
2022/12/03 08:17:47;;;;;;;53.70;33.70;;;;;;;0.46;100.00;97342.81;105794;1283;22472;-85
2022/12/03 08:20:18;;;;;;;55.90;35.70;;;;;;;0.29;100.00;97344.73;105815;1280;22494;-85
2022/12/03 08:22:52;;;;;;;57.30;36.10;;;;;;;0.25;100.00;97350.36;105791;1300;25310;-84
2022/12/03 08:25:23;;;;;;;57.50;35.40;;;;;;;0.22;99.98;97355.54;105737;1276;22926;-85
2022/12/03 08:27:56;;;;;;;53.00;36.60;;;;;;;0.25;100.00;97356.30;105780;1301;22655;-85
2022/12/03 08:30:25;;;;;;;59.70;38.80;;;;;;;0.35;100.00;97355.74;105721;1292;22472;-85
2022/12/03 08:32:57;;;;;;;62.30;40.40;;;;;;;0.40;100.00;97355.92;105771;1294;22509;-85
2022/12/03 08:35:29;;;;;;;60.40;38.70;;;;;;;0.62;100.00;97357.00;105774;1296;25006;-84
2022/12/03 08:38:01;;;;;;;57.80;37.20;;;;;;;0.79;100.00;97358.45;105802;1285;22682;-84
2022/12/03 08:40:34;;;;;;;58.60;37.90;;;;;;;0.90;100.00;97363.77;105752;1293;22641;-84
2022/12/03 08:43:12;;;;;;;50.40;34.20;;;;;;;0.90;100.00;97362.96;105804;1301;22537;-85
2022/12/03 08:45:41;;;;;;;52.60;34.40;;;;;;;0.91;100.00;97361.89;105642;1285;75765;-85
2022/12/03 08:48:31;;;;;;;53.60;35.60;;;;;;;0.86;99.80;97363.80;105794;1301;22466;-85
2022/12/03 08:51:06;;;;;;;57.90;36.60;;;;;;;0.67;99.26;97364.20;105790;1301;22478;-84
2022/12/03 08:53:37;;;;;;;61.10;37.70;;;;;;;0.56;99.14;97363.13;105830;1301;22586;-85
2022/12/03 08:56:21;;;;;;;64.60;41.60;;;;;;;0.53;99.35;97364.59;105734;1301;23672;-85
2022/12/03 08:58:52;;;;;;;64.90;41.70;;;;;;;0.63;99.91;97362.74;105899;1285;22469;-85
2022/12/03 09:01:33;;;;;;;59.60;38.80;;;;;;;0.83;100.00;97361.63;105791;1301;22585;-85
2022/12/03 09:04:19;;;;;;;63.80;41.30;;;;;;;0.96;100.00;97356.66;105791;1296;22453;-86
2022/12/03 09:06:48;;;;;;;66.90;41.80;;;;;;;1.07;100.00;97353.51;105567;1301;41485;-86
2022/12/03 09:09:21;;;;;;;60.00;38.00;;;;;;;1.22;100.00;97353.89;105563;1302;22471;-85
2022/12/03 09:11:50;;;;;;;59.00;39.30;;;;;;;1.35;100.00;97348.34;105633;1281;22525;-85
2022/12/03 09:14:21;;;;;;;57.10;35.90;;;;;;;1.41;100.00;97345.13;105635;1297;22537;-86
2022/12/03 09:16:54;;;;;;;56.20;36.30;;;;;;;1.32;99.36;97343.73;105801;1300;38496;-85
2022/12/03 09:19:24;;;;;;;70.10;43.20;;;;;;;1.16;98.31;97348.73;105823;1280;25339;-85
2022/12/03 09:21:53;;;;;;;70.10;43.30;;;;;;;1.08;98.55;97347.29;105815;1286;22459;-87
2022/12/03 09:24:24;;;;;;;68.80;43.50;;;;;;;1.15;98.97;97345.20;105371;1285;1827878;-86
2022/12/03 09:26:54;;;;;;;63.80;41.60;;;;;;;1.30;99.48;97342.28;105470;1293;22537;-87
2022/12/03 09:29:23;;;;;;;62.70;41.70;;;;;;;1.36;99.33;97341.83;105468;1287;22477;-87
2022/12/03 09:31:55;;;;;;;56.90;38.20;;;;;;;1.38;99.06;97344.07;105501;1285;22508;-87
2022/12/03 09:34:24;;;;;;;59.80;38.90;;;;;;;1.41;99.15;97340.23;105544;1282;22454;-87
2022/12/03 09:36:53;;;;;;;58.80;39.20;;;;;;;1.45;98.95;97340.02;105492;1293;22696;-87
2022/12/03 09:39:25;;;;;;;61.00;39.90;;;;;;;1.58;99.19;97344.91;105478;1282;22502;-87
2022/12/03 09:41:55;;;;;;;60.00;38.00;;;;;;;1.77;99.47;97348.46;105467;1300;22472;-87
2022/12/03 09:44:25;;;;;;;57.00;38.90;;;;;;;1.88;99.06;97350.63;105512;1295;25242;-87
2022/12/03 09:46:53;;;;;;;44.70;30.00;;;;;;;1.84;98.57;97350.55;105778;1301;44261;-88
2022/12/03 09:49:25;;;;;;;63.00;41.20;;;;;;;1.80;98.20;97345.48;105804;1292;25262;-88
2022/12/03 09:51:56;;;;;;;59.70;39.70;;;;;;;1.93;98.45;97338.94;105771;1300;22526;-87
2022/12/03 09:54:28;;;;;;;54.20;35.80;;;;;;;2.11;98.88;97340.45;105782;1301;22499;-88
2022/12/03 09:56:59;;;;;;;57.70;37.60;;;;;;;2.25;98.66;97339.29;105759;1293;22456;-87
2022/12/03 09:59:33;;;;;;;55.10;35.90;;;;;;;2.25;98.01;97339.97;105724;1293;26263;-87
2022/12/03 10:02:11;;;;;;;50.50;33.40;;;;;;;2.22;97.34;97338.44;105792;1279;22467;-86
2022/12/03 10:04:39;;;;;;;51.90;33.20;;;;;;;2.14;96.86;97337.20;105698;1291;72138;-87
2022/12/03 10:07:11;;;;;;;48.80;32.30;;;;;;;2.19;97.17;97337.65;105818;1285;24115;-86
2022/12/03 10:09:40;;;;;;;53.00;34.60;;;;;;;2.31;97.46;97337.37;105788;1286;25200;-87
2022/12/03 10:12:13;;;;;;;58.40;37.30;;;;;;;2.35;96.95;97338.51;105872;1285;22493;-86
2022/12/03 10:14:45;;;;;;;67.30;42.10;;;;;;;2.27;95.94;97335.33;105712;1285;86885;-86
2022/12/03 10:17:14;;;;;;;73.30;47.70;;;;;;;2.17;95.66;97333.19;105794;1292;22504;-86
2022/12/03 10:19:43;;;;;;;79.10;50.80;;;;;;;2.23;95.93;97337.75;105825;1277;22503;-86
2022/12/03 10:22:12;;;;;;;83.00;53.30;;;;;;;2.24;95.78;97339.35;105754;1286;24414;-86
2022/12/03 10:24:43;;;;;;;85.80;54.90;;;;;;;2.14;94.87;97339.36;105647;1292;60330;-86
2022/12/03 10:27:23;;;;;;;94.70;60.50;;;;;;;2.01;95.02;97336.46;105797;1291;22452;-86
2022/12/03 10:29:56;;;;;;;102.60;62.80;;;;;;;2.02;95.40;97337.52;105786;1286;24234;-88
2022/12/03 10:32:37;;;;;;;101.30;64.10;;;;;;;2.02;95.36;97336.98;105875;1285;25474;-86
2022/12/03 10:35:12;;;;;;;97.20;63.60;;;;;;;2.15;96.17;97334.20;105789;1291;67920;-87
2022/12/03 10:37:58;;;;;;;98.80;60.70;;;;;;;2.31;96.16;97332.98;105878;1292;22484;-86
2022/12/03 10:40:31;;;;;;;96.50;59.60;;;;;;;2.27;95.53;97327.73;105827;1301;22504;-86
2022/12/03 10:43:21;;;;;;;89.70;58.40;;;;;;;2.20;95.58;97325.17;105866;1292;22456;-87
2022/12/03 10:45:51;;;;;;;89.10;55.90;;;;;;;2.19;95.50;97325.58;105734;1292;25615;-86
2022/12/03 10:48:24;;;;;;;91.70;55.00;;;;;;;2.17;95.30;97323.66;105777;1287;25254;-90
2022/12/03 10:51:02;;;;;;;84.00;52.80;;;;;;;2.09;95.27;97321.42;105812;1285;22490;-86
2022/12/03 10:53:33;;;;;;;92.80;56.90;;;;;;;2.07;95.15;97321.16;105764;1293;25241;-85
2022/12/03 10:56:05;;;;;;;97.40;58.30;;;;;;;1.88;94.88;97312.84;105665;1286;73713;-88
2022/12/03 10:58:37;;;;;;;100.10;57.40;;;;;;;1.67;94.43;97314.15;105796;1287;22498;-90
2022/12/03 11:01:14;;;;;;;94.40;55.00;;;;;;;1.48;94.59;97320.00;105851;1292;22472;-89
2022/12/03 11:03:44;;;;;;;100.10;54.10;;;;;;;1.31;94.67;97315.59;105797;1286;24415;-89
2022/12/03 11:06:16;;;;;;;89.90;52.50;;;;;;;1.02;94.53;97317.27;105702;1285;73616;-89
2022/12/03 11:08:49;;;;;;;93.20;53.20;;;;;;;0.75;95.07;97316.04;105805;1275;22463;-88
2022/12/03 11:11:20;;;;;;;89.20;52.50;;;;;;;0.68;95.77;97312.05;105798;1287;22486;-89
2022/12/03 11:13:52;;;;;;;96.60;51.40;;;;;;;0.80;96.40;97313.64;105829;1278;25355;-87
2022/12/03 11:17:08;;;;;;;89.80;48.90;;;;;;;0.74;96.24;97312.91;105718;1287;42731;-83
2022/12/03 11:19:48;;;;;;;90.40;47.90;;;;;;;0.49;96.37;97314.61;105776;1287;24279;-89
2022/12/03 11:22:38;;;;;;;70.10;36.80;;;;;;;0.44;96.85;97317.23;105839;1285;22725;-88
2022/12/03 11:25:49;;;;;;;112.00;50.00;;;;;;;0.38;96.97;97320.28;105786;1285;26998;-87
2022/12/03 11:28:52;;;;;;;92.00;50.70;;;;;;;0.33;97.15;97322.45;105807;1275;24569;-85
2022/12/03 11:31:41;;;;;;;98.50;51.40;;;;;;;0.48;98.00;97312.09;105788;1292;22475;-87
2022/12/03 11:34:43;;;;;;;88.00;49.20;;;;;;;0.69;98.41;97312.38;105789;1285;23362;-86
2022/12/03 11:37:26;;;;;;;81.70;47.00;;;;;;;0.49;97.93;97310.80;105894;1292;22472;-87
2022/12/03 11:40:27;;;;;;;77.00;41.40;;;;;;;0.31;97.88;97309.27;105879;1292;22479;-87
2022/12/03 11:42:56;;;;;;;82.20;46.80;;;;;;;0.11;97.84;97311.33;105864;1292;22473;-87